createdAt,value
2023-01-28T00:00:39.148Z,0.10
2023-01-28T00:03:06.313Z,0.10
2023-01-28T00:05:33.261Z,0.00
2023-01-28T00:08:00.247Z,0.10
2023-01-28T00:10:27.416Z,0.00
2023-01-28T00:12:54.381Z,0.00
2023-01-28T00:15:21.372Z,0.10
2023-01-28T00:17:48.354Z,0.10
2023-01-28T00:20:15.718Z,0.10
2023-01-28T00:22:52.076Z,0.20
2023-01-28T00:25:19.755Z,0.10
2023-01-28T00:27:47.239Z,0.10
2023-01-28T00:30:17.134Z,0.10
2023-01-28T00:32:44.613Z,0.20
2023-01-28T00:35:13.637Z,0.10
2023-01-28T00:37:44.430Z,0.10
2023-01-28T00:40:13.909Z,0.10
2023-01-28T00:42:40.855Z,0.10
2023-01-28T00:45:08.714Z,0.10
2023-01-28T00:47:35.935Z,0.10
2023-01-28T00:50:04.211Z,0.10
2023-01-28T00:52:31.486Z,0.00
2023-01-28T00:55:01.574Z,0.10
2023-01-28T00:57:28.543Z,0.10
2023-01-28T00:59:55.570Z,0.00
2023-01-28T01:02:22.970Z,0.10
2023-01-28T01:04:59.048Z,0.20
2023-01-28T01:07:43.605Z,0.10
2023-01-28T01:10:19.250Z,0.20
2023-01-28T01:12:47.843Z,0.00
2023-01-28T01:15:16.581Z,0.00
2023-01-28T01:17:48.386Z,0.00
2023-01-28T01:20:21.387Z,0.00
2023-01-28T01:22:48.608Z,0.10
2023-01-28T01:25:17.475Z,0.10
2023-01-28T01:27:48.704Z,0.10
2023-01-28T01:30:16.700Z,0.10
2023-01-28T01:32:43.701Z,0.10
2023-01-28T01:35:11.223Z,0.20
2023-01-28T01:37:39.885Z,0.10
2023-01-28T01:40:08.199Z,0.10
2023-01-28T01:42:35.422Z,0.10
2023-01-28T01:45:06.240Z,0.10
2023-01-28T01:47:45.747Z,0.20
2023-01-28T01:50:24.431Z,0.10
2023-01-28T01:52:55.125Z,0.00
2023-01-28T01:55:26.052Z,0.00
2023-01-28T01:57:55.986Z,0.00
2023-01-28T02:00:24.684Z,0.20
2023-01-28T02:02:53.000Z,0.10
2023-01-28T02:05:22.596Z,0.00
2023-01-28T02:07:55.085Z,0.00
2023-01-28T02:10:23.720Z,0.10
2023-01-28T02:12:56.336Z,0.10
2023-01-28T02:15:29.748Z,0.00
2023-01-28T02:17:57.513Z,0.00
2023-01-28T02:20:45.390Z,0.10
2023-01-28T02:23:25.235Z,0.10
2023-01-28T02:26:26.026Z,0.10
2023-01-28T02:28:59.893Z,0.00
2023-01-28T02:31:38.801Z,0.00
2023-01-28T02:34:31.827Z,0.00
2023-01-28T02:37:14.763Z,0.00
2023-01-28T02:39:52.925Z,0.00
2023-01-28T02:42:29.135Z,0.10
2023-01-28T02:44:56.482Z,0.10
2023-01-28T02:47:42.523Z,0.10
2023-01-28T02:50:16.071Z,0.10
2023-01-28T02:53:20.295Z,0.00
2023-01-28T02:55:56.106Z,0.10
2023-01-28T02:58:36.880Z,0.10
2023-01-28T03:01:16.499Z,0.10
2023-01-28T03:04:14.838Z,0.10
2023-01-28T03:06:49.127Z,0.10
2023-01-28T03:09:24.820Z,0.10
2023-01-28T03:12:25.425Z,0.00
2023-01-28T03:15:26.007Z,0.10
2023-01-28T03:18:19.586Z,0.10
2023-01-28T03:21:30.482Z,0.00
2023-01-28T03:24:25.229Z,0.00
2023-01-28T03:27:23.544Z,0.00
2023-01-28T03:30:20.131Z,0.10
2023-01-28T03:33:05.922Z,0.10
2023-01-28T03:35:54.748Z,0.00
2023-01-28T03:38:23.106Z,0.10
2023-01-28T03:41:02.711Z,0.00
2023-01-28T03:43:31.823Z,0.00
2023-01-28T03:45:59.976Z,0.00
2023-01-28T03:48:28.709Z,-0.10
2023-01-28T03:50:57.432Z,-0.10
2023-01-28T03:53:26.798Z,-0.10
2023-01-28T03:55:56.776Z,-0.10
2023-01-28T03:58:46.531Z,0.00
2023-01-28T04:01:16.958Z,0.00
2023-01-28T04:03:44.105Z,-0.10
2023-01-28T04:06:17.659Z,-0.10
2023-01-28T04:08:59.598Z,0.00
2023-01-28T04:11:34.226Z,-0.20
2023-01-28T04:14:03.820Z,-0.10
2023-01-28T04:16:44.637Z,0.00
2023-01-28T04:19:13.009Z,0.00
2023-01-28T04:21:40.459Z,0.10
2023-01-28T04:24:08.910Z,0.00
2023-01-28T04:26:36.131Z,0.00
2023-01-28T04:29:05.654Z,-0.10
2023-01-28T04:31:46.550Z,-0.10
2023-01-28T04:34:23.077Z,-0.10
2023-01-28T04:37:22.035Z,-0.10
2023-01-28T04:40:13.817Z,0.00
2023-01-28T04:42:42.947Z,0.00
2023-01-28T04:45:24.812Z,0.00
2023-01-28T04:48:12.239Z,0.00
2023-01-28T04:50:55.281Z,-0.10
2023-01-28T04:53:35.471Z,-0.20
2023-01-28T04:56:08.076Z,-0.30
2023-01-28T04:58:36.603Z,-0.10
2023-01-28T05:01:10.118Z,-0.10
2023-01-28T05:03:37.253Z,0.00
2023-01-28T05:06:05.898Z,-0.10
2023-01-28T05:08:47.240Z,-0.10
2023-01-28T05:11:16.114Z,0.10
2023-01-28T05:13:44.739Z,0.00
2023-01-28T05:16:14.336Z,0.00
2023-01-28T05:18:44.606Z,-0.10
2023-01-28T05:21:15.596Z,-0.10
2023-01-28T05:23:44.056Z,0.00
2023-01-28T05:26:14.172Z,-0.10
2023-01-28T05:28:41.123Z,-0.10
2023-01-28T05:31:10.035Z,-0.10
2023-01-28T05:33:37.564Z,0.00
2023-01-28T05:36:07.921Z,-0.10
2023-01-28T05:38:35.010Z,-0.10
2023-01-28T05:41:02.047Z,-0.10
2023-01-28T05:43:29.039Z,-0.20
2023-01-28T05:46:27.962Z,-0.20
2023-01-28T05:49:03.646Z,-0.20
2023-01-28T05:51:36.247Z,-0.10
2023-01-28T05:54:03.974Z,-0.10
2023-01-28T05:56:31.042Z,0.00
2023-01-28T05:58:58.215Z,-0.20
2023-01-28T06:01:25.295Z,0.00
2023-01-28T06:03:54.513Z,-0.10
2023-01-28T06:06:21.797Z,-0.10
2023-01-28T06:08:48.974Z,-0.20
2023-01-28T06:11:22.167Z,-0.20
2023-01-28T06:13:50.880Z,-0.10
2023-01-28T06:16:27.015Z,-0.10
2023-01-28T06:19:20.543Z,0.00
2023-01-28T06:21:47.775Z,0.10
2023-01-28T06:24:14.786Z,0.00
2023-01-28T06:26:42.000Z,0.00
2023-01-28T06:29:09.299Z,0.00
2023-01-28T06:31:36.342Z,0.10
2023-01-28T06:34:03.691Z,0.10
2023-01-28T06:36:30.751Z,0.10
2023-01-28T06:38:57.753Z,0.10
2023-01-28T06:41:24.885Z,0.00
2023-01-28T06:43:51.923Z,0.10
2023-01-28T06:46:19.063Z,0.00
2023-01-28T06:48:46.171Z,0.10
2023-01-28T06:51:15.859Z,0.10
2023-01-28T06:53:44.581Z,0.20
2023-01-28T06:56:13.065Z,0.20
2023-01-28T06:58:42.961Z,0.10
2023-01-28T07:01:10.119Z,0.10
2023-01-28T07:03:37.315Z,0.10
2023-01-28T07:06:04.550Z,0.20
2023-01-28T07:08:31.602Z,0.20
2023-01-28T07:10:59.324Z,0.20
2023-01-28T07:13:28.820Z,0.10
2023-01-28T07:15:55.858Z,0.10
2023-01-28T07:18:22.983Z,0.30
2023-01-28T07:20:49.960Z,0.20
2023-01-28T07:23:17.169Z,0.10
2023-01-28T07:25:44.244Z,0.20
2023-01-28T07:28:12.145Z,0.20
2023-01-28T07:30:39.186Z,0.30
2023-01-28T07:33:06.134Z,0.20
2023-01-28T07:35:33.347Z,0.20
2023-01-28T07:38:01.769Z,0.20
2023-01-28T07:40:28.937Z,0.30
2023-01-28T07:42:56.874Z,0.30
2023-01-28T07:45:25.552Z,0.40
2023-01-28T07:48:07.225Z,0.40
2023-01-28T07:50:39.319Z,0.40
2023-01-28T07:53:10.834Z,0.30
2023-01-28T07:55:38.863Z,0.40
2023-01-28T07:58:07.505Z,0.40
2023-01-28T08:00:36.655Z,0.50
2023-01-28T08:03:12.693Z,0.40
2023-01-28T08:05:51.372Z,0.40
2023-01-28T08:08:18.480Z,0.40
2023-01-28T08:10:45.752Z,0.30
2023-01-28T08:13:14.028Z,0.20
2023-01-28T08:15:41.615Z,0.40
2023-01-28T08:18:10.744Z,0.40
2023-01-28T08:20:37.882Z,0.50
2023-01-28T08:23:23.155Z,0.50
2023-01-28T08:25:51.290Z,0.50
2023-01-28T08:28:18.826Z,0.40
2023-01-28T08:30:47.287Z,0.40
2023-01-28T08:33:15.800Z,0.50
2023-01-28T08:35:43.085Z,0.50
2023-01-28T08:38:12.790Z,0.50
2023-01-28T08:40:40.946Z,0.60
2023-01-28T08:43:07.947Z,0.60
2023-01-28T08:45:36.543Z,0.60
2023-01-28T08:48:08.152Z,0.60
2023-01-28T08:50:37.384Z,0.60
2023-01-28T08:53:06.856Z,0.60
2023-01-28T08:55:36.812Z,0.60
2023-01-28T08:58:08.730Z,0.50
2023-01-28T09:00:38.477Z,0.60
2023-01-28T09:03:06.557Z,0.70
2023-01-28T09:05:38.050Z,0.70
2023-01-28T09:08:15.707Z,0.80
2023-01-28T09:10:43.237Z,0.80
2023-01-28T09:13:23.523Z,0.80
2023-01-28T09:15:51.418Z,0.90
2023-01-28T09:18:19.323Z,1.00
2023-01-28T09:20:46.622Z,0.90
2023-01-28T09:23:14.373Z,0.80
2023-01-28T09:25:41.738Z,0.80
2023-01-28T09:28:08.906Z,0.80
2023-01-28T09:30:37.970Z,0.80
2023-01-28T09:33:06.180Z,0.70
2023-01-28T09:35:34.465Z,0.80
2023-01-28T09:38:01.663Z,0.90
2023-01-28T09:40:41.660Z,0.90
2023-01-28T09:43:41.197Z,0.90
2023-01-28T09:46:13.393Z,0.90
2023-01-28T09:48:54.217Z,1.00
2023-01-28T09:51:41.984Z,1.00
2023-01-28T09:54:37.955Z,1.00
2023-01-28T09:57:20.844Z,0.90
2023-01-28T09:59:48.192Z,1.00
2023-01-28T10:02:42.608Z,1.00
2023-01-28T10:05:31.537Z,1.00
2023-01-28T10:08:17.349Z,1.00
2023-01-28T10:11:08.487Z,1.10
2023-01-28T10:14:08.378Z,1.00
2023-01-28T10:16:41.373Z,1.10
2023-01-28T10:19:18.349Z,1.10
2023-01-28T10:22:07.029Z,1.10
2023-01-28T10:24:45.021Z,1.20
2023-01-28T10:27:17.190Z,1.20
2023-01-28T10:29:46.571Z,1.30
2023-01-28T10:32:24.035Z,1.30
2023-01-28T10:34:53.343Z,1.30
2023-01-28T10:37:21.492Z,1.30
2023-01-28T10:39:48.687Z,1.40
2023-01-28T10:42:31.794Z,1.30
2023-01-28T10:45:21.566Z,1.30
2023-01-28T10:48:07.257Z,1.40
2023-01-28T10:50:35.461Z,1.50
2023-01-28T10:53:08.761Z,1.50
2023-01-28T10:55:49.236Z,1.50
2023-01-28T10:58:26.442Z,1.50
2023-01-28T11:00:57.003Z,1.50
2023-01-28T11:03:29.166Z,1.50
2023-01-28T11:05:57.931Z,1.40
2023-01-28T11:08:29.730Z,1.40
2023-01-28T11:10:57.577Z,1.50
2023-01-28T11:13:25.780Z,1.50
2023-01-28T11:16:01.812Z,1.60
2023-01-28T11:18:33.440Z,1.50
2023-01-28T11:21:03.169Z,1.50
2023-01-28T11:23:34.240Z,1.40
2023-01-28T11:26:29.435Z,1.40
2023-01-28T11:28:56.615Z,1.50
2023-01-28T11:31:24.486Z,1.50
2023-01-28T11:33:57.663Z,1.40
2023-01-28T11:36:31.217Z,1.40
2023-01-28T11:39:29.721Z,1.40
2023-01-28T11:42:22.040Z,1.50
2023-01-28T11:44:51.184Z,1.50
2023-01-28T11:47:43.003Z,1.50
2023-01-28T11:50:39.054Z,1.50
2023-01-28T11:53:32.372Z,1.50
2023-01-28T11:56:33.781Z,1.40
2023-01-28T11:59:09.459Z,1.40
2023-01-28T12:02:18.317Z,1.50
2023-01-28T12:05:17.639Z,1.30
2023-01-28T12:07:56.772Z,1.40
2023-01-28T12:10:42.703Z,1.40
2023-01-28T12:13:16.982Z,1.40
2023-01-28T12:16:15.721Z,1.30
2023-01-28T12:19:04.888Z,1.40
2023-01-28T12:21:56.992Z,1.40
2023-01-28T12:24:39.853Z,1.50
2023-01-28T12:27:38.708Z,1.50
2023-01-28T12:30:19.393Z,1.40
2023-01-28T12:33:04.152Z,1.40
2023-01-28T12:36:07.131Z,1.50
2023-01-28T12:38:59.121Z,1.50
2023-01-28T12:41:38.047Z,1.60
2023-01-28T12:44:10.276Z,1.50
2023-01-28T12:47:15.638Z,1.40
2023-01-28T12:49:53.969Z,1.50
2023-01-28T12:52:35.353Z,1.50
2023-01-28T12:55:40.020Z,1.60
2023-01-28T12:58:25.203Z,1.60
2023-01-28T13:01:00.139Z,1.50
2023-01-28T13:03:40.351Z,1.50
2023-01-28T13:06:33.260Z,1.50
2023-01-28T13:09:13.331Z,1.50
2023-01-28T13:11:41.950Z,1.60
2023-01-28T13:14:12.515Z,1.60
2023-01-28T13:16:39.896Z,1.70
2023-01-28T13:19:24.622Z,1.60
2023-01-28T13:21:53.148Z,1.50
2023-01-28T13:24:22.997Z,1.50
2023-01-28T13:26:53.023Z,1.50
2023-01-28T13:29:33.319Z,1.50
2023-01-28T13:32:03.601Z,1.50
2023-01-28T13:34:37.902Z,1.50
2023-01-28T13:37:27.927Z,1.50
2023-01-28T13:40:03.192Z,1.50
2023-01-28T13:42:31.604Z,1.50
2023-01-28T13:45:17.271Z,1.50
2023-01-28T13:47:58.646Z,1.50
2023-01-28T13:50:41.428Z,1.50
2023-01-28T13:53:27.392Z,1.50
2023-01-28T13:55:59.568Z,1.50
2023-01-28T13:59:02.976Z,1.40
2023-01-28T14:01:56.608Z,1.40
2023-01-28T14:05:10.977Z,1.40
2023-01-28T14:07:56.400Z,1.40
2023-01-28T14:10:57.845Z,1.40
2023-01-28T14:14:03.109Z,1.40
2023-01-28T14:17:02.338Z,1.40
2023-01-28T14:19:33.866Z,1.40
2023-01-28T14:22:10.182Z,1.50
2023-01-28T14:24:40.661Z,1.50
2023-01-28T14:27:43.118Z,1.60
2023-01-28T14:30:26.698Z,1.50
2023-01-28T14:32:55.011Z,1.50
2023-01-28T14:35:35.054Z,1.50
2023-01-28T14:38:09.313Z,1.50
2023-01-28T14:40:40.118Z,1.50
2023-01-28T14:43:14.938Z,1.50
2023-01-28T14:45:51.258Z,1.50
2023-01-28T14:48:38.462Z,1.50
2023-01-28T14:51:52.254Z,1.40
2023-01-28T14:54:42.430Z,1.50
2023-01-28T14:57:44.950Z,1.30
2023-01-28T15:00:24.310Z,1.30
2023-01-28T15:02:51.843Z,1.40
2023-01-28T15:05:27.976Z,1.40
2023-01-28T15:07:56.267Z,1.30
2023-01-28T15:10:35.933Z,1.30
2023-01-28T15:13:11.135Z,1.40
2023-01-28T15:15:40.989Z,1.30
2023-01-28T15:18:18.554Z,1.30
2023-01-28T15:20:48.460Z,1.20
2023-01-28T15:23:19.699Z,1.20
2023-01-28T15:25:47.055Z,1.40
2023-01-28T15:28:24.284Z,1.40
2023-01-28T15:30:51.518Z,1.50
2023-01-28T15:33:22.495Z,1.40
2023-01-28T15:35:51.890Z,1.30
2023-01-28T15:38:18.944Z,1.30
2023-01-28T15:40:59.006Z,1.20
2023-01-28T15:43:29.098Z,1.40
2023-01-28T15:45:58.200Z,1.30
2023-01-28T15:48:33.903Z,1.30
2023-01-28T15:51:07.002Z,1.20
2023-01-28T15:53:46.520Z,1.20
2023-01-28T15:56:16.173Z,1.20
2023-01-28T15:58:44.518Z,1.20
2023-01-28T16:01:15.790Z,1.20
2023-01-28T16:03:45.987Z,1.10
2023-01-28T16:06:13.391Z,1.10
2023-01-28T16:08:47.110Z,1.00
2023-01-28T16:11:27.678Z,1.20
2023-01-28T16:13:56.076Z,1.20
2023-01-28T16:16:33.255Z,1.20
2023-01-28T16:19:08.441Z,1.30
2023-01-28T16:21:38.757Z,1.30
2023-01-28T16:24:26.944Z,1.30
2023-01-28T16:27:09.832Z,1.30
2023-01-28T16:29:38.630Z,1.30
2023-01-28T16:32:35.651Z,1.20
2023-01-28T16:35:05.480Z,1.20
2023-01-28T16:37:32.535Z,1.30
2023-01-28T16:40:01.613Z,1.30
2023-01-28T16:42:31.280Z,1.30
2023-01-28T16:44:58.745Z,1.20
2023-01-28T16:47:26.162Z,1.30
2023-01-28T16:49:53.723Z,1.30
2023-01-28T16:52:21.200Z,1.20
2023-01-28T16:54:48.606Z,1.20
2023-01-28T17:01:53.196Z,1.20
2023-01-28T17:04:20.842Z,1.30
2023-01-28T17:07:07.065Z,1.40
2023-01-28T17:09:54.755Z,1.40
2023-01-28T17:12:42.545Z,1.20
2023-01-28T17:15:29.937Z,1.30
2023-01-28T17:18:17.684Z,1.30
2023-01-28T17:21:09.365Z,1.30
2023-01-28T17:23:59.073Z,1.30
2023-01-28T17:26:47.462Z,1.30
2023-01-28T17:29:35.445Z,1.40
2023-01-28T17:32:24.069Z,1.40
2023-01-28T17:35:12.677Z,1.40
2023-01-28T17:38:00.554Z,1.40
2023-01-28T17:40:48.765Z,1.40
2023-01-28T17:43:37.482Z,1.40
2023-01-28T17:46:26.291Z,1.40
2023-01-28T17:49:20.121Z,1.40
2023-01-28T17:52:08.697Z,1.40
2023-01-28T17:54:56.540Z,1.40
2023-01-28T17:57:45.221Z,1.40
2023-01-28T18:00:33.713Z,1.40
2023-01-28T18:03:22.256Z,1.40
2023-01-28T18:06:00.703Z,1.30
2023-01-28T18:08:48.155Z,1.30
2023-01-28T18:11:34.110Z,1.30
2023-01-28T18:14:25.505Z,1.40
2023-01-28T18:17:14.285Z,1.40
2023-01-28T18:20:04.162Z,1.30
2023-01-28T18:22:53.345Z,1.30
2023-01-28T18:25:42.306Z,1.40
2023-01-28T18:28:30.220Z,1.40
2023-01-28T18:31:21.528Z,1.40
2023-01-28T18:34:09.534Z,1.30
2023-01-28T18:36:37.358Z,1.30
2023-01-28T18:39:06.149Z,1.20
2023-01-28T18:41:36.620Z,1.30
2023-01-28T18:44:03.840Z,1.40
2023-01-28T18:46:31.768Z,1.40
2023-01-28T18:49:19.885Z,1.40
2023-01-28T18:52:06.485Z,1.40
2023-01-28T18:54:54.526Z,1.40
2023-01-28T18:57:42.147Z,1.40
2023-01-28T19:00:31.282Z,1.40
2023-01-28T19:03:19.500Z,1.40
2023-01-28T19:06:10.071Z,1.30
2023-01-28T19:09:01.468Z,1.40
2023-01-28T19:11:51.322Z,1.40
2023-01-28T19:14:39.697Z,1.40
2023-01-28T19:17:29.062Z,1.30
2023-01-28T19:20:17.865Z,1.40
2023-01-28T19:23:07.981Z,1.40
2023-01-28T19:25:56.700Z,1.40
2023-01-28T19:28:45.114Z,1.40
2023-01-28T19:31:33.378Z,1.50
2023-01-28T19:34:22.055Z,1.40
2023-01-28T19:37:10.378Z,1.40
2023-01-28T19:39:58.246Z,1.40
2023-01-28T19:42:47.016Z,1.40
2023-01-28T19:45:36.881Z,1.40
2023-01-28T19:48:05.214Z,1.40
2023-01-28T19:50:52.496Z,1.40
2023-01-28T19:53:42.863Z,1.40
2023-01-28T19:56:32.328Z,1.40
2023-01-28T19:59:20.927Z,1.40
2023-01-28T20:02:10.793Z,1.40
2023-01-28T20:05:01.140Z,1.30
2023-01-28T20:07:49.193Z,1.30
2023-01-28T20:10:37.109Z,1.20
2023-01-28T20:13:25.269Z,1.30
2023-01-28T20:16:35.217Z,1.30
2023-01-28T20:19:06.438Z,1.20
2023-01-28T20:21:53.113Z,1.30
2023-01-28T20:24:40.172Z,1.30
2023-01-28T20:27:27.900Z,1.30
2023-01-28T20:30:18.179Z,1.30
2023-01-28T20:33:06.695Z,1.30
2023-01-28T20:36:01.931Z,1.30
2023-01-28T20:38:50.194Z,1.30
2023-01-28T20:41:38.648Z,1.20
2023-01-28T20:44:34.442Z,1.20
2023-01-28T20:47:22.374Z,1.20
2023-01-28T20:50:12.443Z,1.30
2023-01-28T20:53:01.853Z,1.30
2023-01-28T20:55:59.734Z,1.30
2023-01-28T20:58:53.554Z,1.20
2023-01-28T21:01:42.149Z,1.20
2023-01-28T21:04:29.952Z,1.30
2023-01-28T21:07:18.114Z,1.20
2023-01-28T21:10:06.465Z,1.30
2023-01-28T21:12:54.541Z,1.20
2023-01-28T21:15:56.541Z,1.20
2023-01-28T21:18:45.005Z,1.30
2023-01-28T21:21:33.192Z,1.30
2023-01-28T21:24:21.195Z,1.20
2023-01-28T21:27:08.612Z,1.20
2023-01-28T21:29:35.833Z,1.30
2023-01-28T21:32:03.858Z,1.30
2023-01-28T21:34:31.948Z,1.30
2023-01-28T21:36:59.256Z,1.30
2023-01-28T21:39:26.802Z,1.20
2023-01-28T21:41:53.937Z,1.30
2023-01-28T21:44:22.484Z,1.30
2023-01-28T21:46:49.491Z,1.30
2023-01-28T21:49:18.328Z,1.30
2023-01-28T21:51:48.271Z,1.30
2023-01-28T21:54:19.058Z,1.20
2023-01-28T21:56:47.483Z,1.30
2023-01-28T21:59:30.813Z,1.30
2023-01-28T22:02:00.696Z,1.30
2023-01-28T22:04:37.060Z,1.20
2023-01-28T22:07:07.178Z,1.20
2023-01-28T22:09:35.216Z,1.20
2023-01-28T22:12:03.775Z,1.20
2023-01-28T22:14:31.103Z,1.20
2023-01-28T22:16:58.229Z,1.20
2023-01-28T22:19:25.658Z,1.20
2023-01-28T22:21:52.768Z,1.40
2023-01-28T22:24:22.610Z,1.30
2023-01-28T22:26:50.935Z,1.20
2023-01-28T22:29:36.824Z,1.10
2023-01-28T22:32:24.191Z,1.20
2023-01-28T22:35:11.614Z,1.20
2023-01-28T22:37:59.031Z,1.20
2023-01-28T22:40:46.357Z,1.20
2023-01-28T22:43:33.763Z,1.20
2023-01-28T22:46:23.486Z,1.20
2023-01-28T22:49:12.139Z,1.10
2023-01-28T22:51:59.487Z,1.00
2023-01-28T22:54:47.859Z,1.10
2023-01-28T22:57:35.487Z,1.10
2023-01-28T23:00:28.109Z,1.10
2023-01-28T23:03:15.564Z,1.10
2023-01-28T23:06:04.863Z,1.10
2023-01-28T23:08:52.612Z,1.10
2023-01-28T23:11:40.238Z,1.10
2023-01-28T23:14:46.215Z,1.10
2023-01-28T23:17:53.175Z,1.10
2023-01-28T23:20:59.501Z,1.10
2023-01-28T23:24:05.662Z,1.10
2023-01-28T23:26:32.633Z,1.00
2023-01-28T23:29:00.199Z,1.10
2023-01-28T23:31:27.378Z,1.10
2023-01-28T23:34:17.775Z,1.00
2023-01-28T23:37:07.614Z,1.00
2023-01-28T23:39:54.969Z,1.10
2023-01-28T23:42:42.574Z,1.10
2023-01-28T23:45:29.982Z,1.00
2023-01-28T23:48:17.856Z,1.00
2023-01-28T23:51:06.900Z,1.00
2023-01-28T23:53:54.276Z,1.00
2023-01-28T23:56:41.771Z,1.00
2023-01-28T23:59:29.237Z,1.00
